sensor_id;sensor_type;location;lat;lon;timestamp;pressure;altitude;pressure_sealevel;temperature;humidity
32933;BME280;19444;50.518;10.870;2023-01-08T00:00:06;95942.88;;;4.27;100.00
32933;BME280;19444;50.518;10.870;2023-01-08T00:03:03;95939.94;;;4.29;100.00
32933;BME280;19444;50.518;10.870;2023-01-08T00:06:04;95932.47;;;4.36;100.00
32933;BME280;19444;50.518;10.870;2023-01-08T00:09:01;95921.28;;;4.15;100.00
32933;BME280;19444;50.518;10.870;2023-01-08T00:11:58;95919.00;;;4.04;100.00
32933;BME280;19444;50.518;10.870;2023-01-08T00:14:55;95922.94;;;3.77;100.00
32933;BME280;19444;50.518;10.870;2023-01-08T00:17:52;95927.19;;;3.78;100.00
32933;BME280;19444;50.518;10.870;2023-01-08T00:20:48;95923.53;;;3.69;100.00
32933;BME280;19444;50.518;10.870;2023-01-08T00:23:45;95926.75;;;3.66;100.00
32933;BME280;19444;50.518;10.870;2023-01-08T00:26:42;95921.19;;;3.62;100.00
32933;BME280;19444;50.518;10.870;2023-01-08T00:29:39;95916.47;;;3.59;100.00
32933;BME280;19444;50.518;10.870;2023-01-08T00:32:36;95911.38;;;3.68;100.00
32933;BME280;19444;50.518;10.870;2023-01-08T00:35:33;95912.56;;;3.47;100.00
32933;BME280;19444;50.518;10.870;2023-01-08T00:38:29;95913.44;;;3.71;100.00
32933;BME280;19444;50.518;10.870;2023-01-08T00:41:26;95908.22;;;3.95;100.00
32933;BME280;19444;50.518;10.870;2023-01-08T00:44:23;95898.88;;;4.03;100.00
32933;BME280;19444;50.518;10.870;2023-01-08T00:47:20;95902.94;;;4.19;100.00
32933;BME280;19444;50.518;10.870;2023-01-08T00:50:17;95910.44;;;4.36;100.00
32933;BME280;19444;50.518;10.870;2023-01-08T00:53:14;95902.16;;;4.42;100.00
32933;BME280;19444;50.518;10.870;2023-01-08T00:56:11;95908.25;;;4.43;100.00
32933;BME280;19444;50.518;10.870;2023-01-08T00:59:07;95897.44;;;4.39;100.00
32933;BME280;19444;50.518;10.870;2023-01-08T01:02:04;95909.44;;;4.32;100.00
32933;BME280;19444;50.518;10.870;2023-01-08T01:05:01;95900.47;;;4.51;100.00
32933;BME280;19444;50.518;10.870;2023-01-08T01:07:58;95898.75;;;4.61;100.00
32933;BME280;19444;50.518;10.870;2023-01-08T01:10:55;95878.81;;;4.63;100.00
32933;BME280;19444;50.518;10.870;2023-01-08T01:13:53;95882.06;;;4.60;100.00
32933;BME280;19444;50.518;10.870;2023-01-08T01:16:50;95886.13;;;4.52;100.00
32933;BME280;19444;50.518;10.870;2023-01-08T01:19:47;95878.25;;;4.66;100.00
32933;BME280;19444;50.518;10.870;2023-01-08T01:22:44;95878.53;;;4.65;100.00
32933;BME280;19444;50.518;10.870;2023-01-08T01:25:41;95864.44;;;4.69;100.00
32933;BME280;19444;50.518;10.870;2023-01-08T01:28:41;95867.78;;;4.75;100.00
32933;BME280;19444;50.518;10.870;2023-01-08T01:31:37;95872.09;;;4.71;100.00
32933;BME280;19444;50.518;10.870;2023-01-08T01:34:34;95871.94;;;4.62;100.00
32933;BME280;19444;50.518;10.870;2023-01-08T01:37:31;95871.53;;;4.74;100.00
32933;BME280;19444;50.518;10.870;2023-01-08T01:40:28;95865.88;;;4.80;100.00
32933;BME280;19444;50.518;10.870;2023-01-08T01:43:39;95867.69;;;4.85;100.00
32933;BME280;19444;50.518;10.870;2023-01-08T01:46:38;95866.06;;;4.84;100.00
32933;BME280;19444;50.518;10.870;2023-01-08T01:49:35;95881.28;;;4.78;100.00
32933;BME280;19444;50.518;10.870;2023-01-08T01:52:37;95857.69;;;4.77;100.00
32933;BME280;19444;50.518;10.870;2023-01-08T01:55:37;95864.50;;;4.83;100.00
32933;BME280;19444;50.518;10.870;2023-01-08T01:58:34;95850.38;;;4.88;100.00
32933;BME280;19444;50.518;10.870;2023-01-08T02:01:31;95844.50;;;4.91;100.00
32933;BME280;19444;50.518;10.870;2023-01-08T02:04:29;95840.59;;;4.83;100.00
32933;BME280;19444;50.518;10.870;2023-01-08T02:07:57;95846.22;;;4.81;100.00
32933;BME280;19444;50.518;10.870;2023-01-08T02:11:03;95848.56;;;4.83;100.00
32933;BME280;19444;50.518;10.870;2023-01-08T02:14:27;95841.91;;;4.85;100.00
32933;BME280;19444;50.518;10.870;2023-01-08T02:17:49;95832.50;;;4.93;100.00
32933;BME280;19444;50.518;10.870;2023-01-08T02:20:53;95835.44;;;4.92;100.00
32933;BME280;19444;50.518;10.870;2023-01-08T02:24:02;95833.56;;;4.92;100.00
32933;BME280;19444;50.518;10.870;2023-01-08T02:27:01;95827.19;;;4.93;100.00
32933;BME280;19444;50.518;10.870;2023-01-08T02:29:59;95808.47;;;5.03;100.00
32933;BME280;19444;50.518;10.870;2023-01-08T02:32:58;95832.72;;;4.97;100.00
32933;BME280;19444;50.518;10.870;2023-01-08T02:36:14;95811.91;;;5.04;100.00
32933;BME280;19444;50.518;10.870;2023-01-08T02:42:34;95804.00;;;5.18;100.00
32933;BME280;19444;50.518;10.870;2023-01-08T02:45:47;95802.84;;;5.24;100.00
32933;BME280;19444;50.518;10.870;2023-01-08T02:48:53;95800.97;;;5.24;100.00
32933;BME280;19444;50.518;10.870;2023-01-08T02:51:52;95808.31;;;5.13;100.00
32933;BME280;19444;50.518;10.870;2023-01-08T02:54:50;95792.38;;;5.13;100.00
32933;BME280;19444;50.518;10.870;2023-01-08T02:57:47;95795.19;;;5.03;100.00
32933;BME280;19444;50.518;10.870;2023-01-08T03:00:44;95790.09;;;5.07;100.00
32933;BME280;19444;50.518;10.870;2023-01-08T03:03:45;95775.53;;;5.04;100.00
32933;BME280;19444;50.518;10.870;2023-01-08T03:06:44;95775.94;;;5.11;100.00
32933;BME280;19444;50.518;10.870;2023-01-08T03:09:41;95775.66;;;5.13;100.00
32933;BME280;19444;50.518;10.870;2023-01-08T03:12:44;95756.59;;;5.25;100.00
32933;BME280;19444;50.518;10.870;2023-01-08T03:15:46;95775.06;;;5.16;100.00
32933;BME280;19444;50.518;10.870;2023-01-08T03:18:48;95752.66;;;5.22;100.00
32933;BME280;19444;50.518;10.870;2023-01-08T03:21:46;95752.66;;;5.22;100.00
32933;BME280;19444;50.518;10.870;2023-01-08T03:24:45;95756.59;;;5.25;100.00
32933;BME280;19444;50.518;10.870;2023-01-08T03:27:46;95747.66;;;5.34;100.00
32933;BME280;19444;50.518;10.870;2023-01-08T03:30:44;95753.94;;;5.25;100.00
32933;BME280;19444;50.518;10.870;2023-01-08T03:33:43;95749.63;;;5.29;100.00
32933;BME280;19444;50.518;10.870;2023-01-08T03:36:44;95744.41;;;5.24;100.00
32933;BME280;19444;50.518;10.870;2023-01-08T03:40:10;95732.69;;;5.25;100.00
32933;BME280;19444;50.518;10.870;2023-01-08T03:43:09;95738.78;;;5.25;100.00
32933;BME280;19444;50.518;10.870;2023-01-08T03:46:08;95739.38;;;5.22;100.00
32933;BME280;19444;50.518;10.870;2023-01-08T03:49:07;95734.34;;;5.21;100.00
32933;BME280;19444;50.518;10.870;2023-01-08T03:52:04;95739.94;;;5.05;100.00
32933;BME280;19444;50.518;10.870;2023-01-08T03:55:01;95743.25;;;4.97;100.00
32933;BME280;19444;50.518;10.870;2023-01-08T03:57:58;95732.25;;;5.04;100.00
32933;BME280;19444;50.518;10.870;2023-01-08T04:00:55;95745.66;;;4.94;100.00
32933;BME280;19444;50.518;10.870;2023-01-08T04:03:52;95733.69;;;4.96;100.00
32933;BME280;19444;50.518;10.870;2023-01-08T04:06:51;95738.22;;;4.96;100.00
32933;BME280;19444;50.518;10.870;2023-01-08T04:09:48;95739.00;;;4.96;100.00
32933;BME280;19444;50.518;10.870;2023-01-08T04:12:44;95736.50;;;5.05;100.00
32933;BME280;19444;50.518;10.870;2023-01-08T04:15:49;95733.41;;;4.98;100.00
32933;BME280;19444;50.518;10.870;2023-01-08T04:18:46;95726.94;;;5.04;100.00
32933;BME280;19444;50.518;10.870;2023-01-08T04:21:42;95722.59;;;4.94;100.00
32933;BME280;19444;50.518;10.870;2023-01-08T04:24:39;95731.84;;;4.97;100.00
32933;BME280;19444;50.518;10.870;2023-01-08T04:27:36;95710.09;;;4.95;100.00
32933;BME280;19444;50.518;10.870;2023-01-08T04:30:33;95713.31;;;4.92;100.00
32933;BME280;19444;50.518;10.870;2023-01-08T04:33:29;95708.59;;;4.89;100.00
32933;BME280;19444;50.518;10.870;2023-01-08T04:36:26;95696.53;;;4.96;100.00
32933;BME280;19444;50.518;10.870;2023-01-08T04:39:23;95707.72;;;4.93;100.00
32933;BME280;19444;50.518;10.870;2023-01-08T04:42:20;95688.47;;;5.01;100.00
32933;BME280;19444;50.518;10.870;2023-01-08T04:45:17;95688.56;;;4.96;100.00
32933;BME280;19444;50.518;10.870;2023-01-08T04:48:14;95694.38;;;4.98;100.00
32933;BME280;19444;50.518;10.870;2023-01-08T04:51:10;95689.91;;;4.94;100.00
32933;BME280;19444;50.518;10.870;2023-01-08T04:54:07;95706.66;;;4.94;100.00
32933;BME280;19444;50.518;10.870;2023-01-08T04:57:04;95705.78;;;4.99;100.00
32933;BME280;19444;50.518;10.870;2023-01-08T05:00:01;95697.09;;;4.93;100.00
32933;BME280;19444;50.518;10.870;2023-01-08T05:02:57;95698.09;;;4.97;100.00
32933;BME280;19444;50.518;10.870;2023-01-08T05:05:54;95689.34;;;4.97;100.00
32933;BME280;19444;50.518;10.870;2023-01-08T05:08:51;95680.91;;;4.95;100.00
32933;BME280;19444;50.518;10.870;2023-01-08T05:11:48;95681.88;;;4.99;100.00
32933;BME280;19444;50.518;10.870;2023-01-08T05:14:45;95685.69;;;4.93;100.00
32933;BME280;19444;50.518;10.870;2023-01-08T05:17:41;95657.50;;;4.97;100.00
32933;BME280;19444;50.518;10.870;2023-01-08T05:20:38;95664.56;;;4.88;100.00
32933;BME280;19444;50.518;10.870;2023-01-08T05:23:35;95662.56;;;4.93;100.00
32933;BME280;19444;50.518;10.870;2023-01-08T05:26:32;95672.03;;;4.99;100.00
32933;BME280;19444;50.518;10.870;2023-01-08T05:29:29;95678.94;;;5.00;100.00
32933;BME280;19444;50.518;10.870;2023-01-08T05:32:25;95673.53;;;5.05;100.00
32933;BME280;19444;50.518;10.870;2023-01-08T05:35:22;95679.34;;;5.07;100.00
32933;BME280;19444;50.518;10.870;2023-01-08T05:38:19;95671.88;;;5.09;100.00
32933;BME280;19444;50.518;10.870;2023-01-08T05:41:16;95684.53;;;4.99;100.00
32933;BME280;19444;50.518;10.870;2023-01-08T05:44:13;95670.97;;;5.00;100.00
32933;BME280;19444;50.518;10.870;2023-01-08T05:47:10;95670.47;;;4.98;100.00
32933;BME280;19444;50.518;10.870;2023-01-08T05:50:07;95658.88;;;4.94;100.00
32933;BME280;19444;50.518;10.870;2023-01-08T05:53:08;95668.91;;;4.97;100.00
32933;BME280;19444;50.518;10.870;2023-01-08T05:56:06;95674.75;;;4.80;100.00
32933;BME280;19444;50.518;10.870;2023-01-08T05:59:05;95659.94;;;4.93;100.00
32933;BME280;19444;50.518;10.870;2023-01-08T06:02:02;95662.50;;;4.98;100.00
32933;BME280;19444;50.518;10.870;2023-01-08T06:04:59;95644.72;;;4.99;100.00
32933;BME280;19444;50.518;10.870;2023-01-08T06:07:57;95647.84;;;5.01;100.00
32933;BME280;19444;50.518;10.870;2023-01-08T06:10:54;95647.06;;;5.00;100.00
32933;BME280;19444;50.518;10.870;2023-01-08T06:13:50;95652.50;;;5.09;100.00
32933;BME280;19444;50.518;10.870;2023-01-08T06:16:47;95639.81;;;5.20;100.00
32933;BME280;19444;50.518;10.870;2023-01-08T06:19:44;95631.75;;;5.25;100.00
32933;BME280;19444;50.518;10.870;2023-01-08T06:22:43;95624.56;;;5.11;100.00
32933;BME280;19444;50.518;10.870;2023-01-08T06:25:39;95630.66;;;5.12;100.00
32933;BME280;19444;50.518;10.870;2023-01-08T06:28:36;95628.88;;;5.07;100.00
32933;BME280;19444;50.518;10.870;2023-01-08T06:31:33;95636.84;;;5.07;100.00
32933;BME280;19444;50.518;10.870;2023-01-08T06:34:30;95637.63;;;5.08;100.00
32933;BME280;19444;50.518;10.870;2023-01-08T06:37:27;95649.34;;;5.21;100.00
32933;BME280;19444;50.518;10.870;2023-01-08T06:40:24;95629.19;;;5.20;100.00
32933;BME280;19444;50.518;10.870;2023-01-08T06:43:21;95624.97;;;5.19;100.00
32933;BME280;19444;50.518;10.870;2023-01-08T06:46:19;95620.94;;;5.21;100.00
32933;BME280;19444;50.518;10.870;2023-01-08T06:49:16;95618.56;;;5.20;100.00
32933;BME280;19444;50.518;10.870;2023-01-08T06:52:13;95612.38;;;5.24;100.00
32933;BME280;19444;50.518;10.870;2023-01-08T06:55:10;95606.78;;;5.26;100.00
32933;BME280;19444;50.518;10.870;2023-01-08T06:58:07;95620.72;;;5.18;100.00
32933;BME280;19444;50.518;10.870;2023-01-08T07:01:05;95607.25;;;5.14;100.00
32933;BME280;19444;50.518;10.870;2023-01-08T07:04:02;95623.97;;;5.14;100.00
32933;BME280;19444;50.518;10.870;2023-01-08T07:06:59;95632.31;;;5.08;100.00
32933;BME280;19444;50.518;10.870;2023-01-08T07:09:55;95624.16;;;5.04;100.00
32933;BME280;19444;50.518;10.870;2023-01-08T07:12:52;95626.81;;;5.04;100.00
32933;BME280;19444;50.518;10.870;2023-01-08T07:15:49;95627.56;;;4.91;100.00
32933;BME280;19444;50.518;10.870;2023-01-08T07:18:46;95638.59;;;4.98;100.00
32933;BME280;19444;50.518;10.870;2023-01-08T07:21:43;95647.72;;;4.92;100.00
32933;BME280;19444;50.518;10.870;2023-01-08T07:24:39;95648.69;;;4.82;100.00
32933;BME280;19444;50.518;10.870;2023-01-08T07:27:36;95659.31;;;4.82;100.00
32933;BME280;19444;50.518;10.870;2023-01-08T07:30:33;95682.72;;;4.80;100.00
32933;BME280;19444;50.518;10.870;2023-01-08T07:33:30;95685.09;;;4.63;100.00
32933;BME280;19444;50.518;10.870;2023-01-08T07:36:27;95682.75;;;4.62;100.00
32933;BME280;19444;50.518;10.870;2023-01-08T07:39:24;95705.84;;;4.61;100.00
32933;BME280;19444;50.518;10.870;2023-01-08T07:42:21;95693.16;;;4.58;100.00
32933;BME280;19444;50.518;10.870;2023-01-08T07:45:17;95695.88;;;4.53;100.00
32933;BME280;19444;50.518;10.870;2023-01-08T07:48:14;95691.50;;;4.43;100.00
32933;BME280;19444;50.518;10.870;2023-01-08T07:51:12;95686.16;;;4.48;100.00
32933;BME280;19444;50.518;10.870;2023-01-08T07:54:09;95686.50;;;4.42;100.00
32933;BME280;19444;50.518;10.870;2023-01-08T07:57:06;95683.91;;;4.37;100.00
32933;BME280;19444;50.518;10.870;2023-01-08T08:00:03;95673.22;;;4.42;100.00
32933;BME280;19444;50.518;10.870;2023-01-08T08:03:04;95671.72;;;4.36;100.00
32933;BME280;19444;50.518;10.870;2023-01-08T08:06:02;95678.53;;;4.42;100.00
32933;BME280;19444;50.518;10.870;2023-01-08T08:08:59;95674.94;;;4.51;100.00
32933;BME280;19444;50.518;10.870;2023-01-08T08:11:56;95671.03;;;4.30;100.00
32933;BME280;19444;50.518;10.870;2023-01-08T08:14:52;95654.22;;;4.35;100.00
32933;BME280;19444;50.518;10.870;2023-01-08T08:17:49;95659.97;;;4.42;100.00
32933;BME280;19444;50.518;10.870;2023-01-08T08:20:46;95645.84;;;4.27;100.00
32933;BME280;19444;50.518;10.870;2023-01-08T08:23:44;95641.75;;;4.35;100.00
32933;BME280;19444;50.518;10.870;2023-01-08T08:26:41;95643.69;;;4.29;100.00
32933;BME280;19444;50.518;10.870;2023-01-08T08:29:41;95638.13;;;4.31;100.00
32933;BME280;19444;50.518;10.870;2023-01-08T08:32:38;95630.66;;;4.33;100.00
32933;BME280;19444;50.518;10.870;2023-01-08T08:35:34;95630.56;;;4.38;100.00
32933;BME280;19444;50.518;10.870;2023-01-08T08:38:31;95634.22;;;4.42;100.00
32933;BME280;19444;50.518;10.870;2023-01-08T08:41:28;95633.09;;;4.48;100.00
32933;BME280;19444;50.518;10.870;2023-01-08T08:44:25;95633.56;;;4.50;100.00
32933;BME280;19444;50.518;10.870;2023-01-08T08:47:22;95630.47;;;4.62;100.00
32933;BME280;19444;50.518;10.870;2023-01-08T08:50:18;95634.19;;;4.61;100.00
32933;BME280;19444;50.518;10.870;2023-01-08T08:53:15;95639.72;;;4.46;100.00
32933;BME280;19444;50.518;10.870;2023-01-08T08:56:12;95634.84;;;4.53;100.00
32933;BME280;19444;50.518;10.870;2023-01-08T08:59:09;95640.31;;;4.43;100.00
32933;BME280;19444;50.518;10.870;2023-01-08T09:02:09;95645.13;;;4.41;100.00
32933;BME280;19444;50.518;10.870;2023-01-08T09:05:06;95646.47;;;4.38;100.00
32933;BME280;19444;50.518;10.870;2023-01-08T09:08:03;95645.63;;;4.43;100.00
32933;BME280;19444;50.518;10.870;2023-01-08T09:11:01;95643.13;;;4.33;100.00
32933;BME280;19444;50.518;10.870;2023-01-08T09:13:58;95648.22;;;4.29;100.00
32933;BME280;19444;50.518;10.870;2023-01-08T09:16:54;95643.34;;;4.36;100.00
32933;BME280;19444;50.518;10.870;2023-01-08T09:19:51;95638.47;;;4.43;100.00
32933;BME280;19444;50.518;10.870;2023-01-08T09:22:48;95637.53;;;4.34;100.00
32933;BME280;19444;50.518;10.870;2023-01-08T09:25:45;95636.75;;;4.34;100.00
32933;BME280;19444;50.518;10.870;2023-01-08T09:28:42;95642.75;;;4.58;100.00
32933;BME280;19444;50.518;10.870;2023-01-08T09:31:39;95651.84;;;4.52;100.00
32933;BME280;19444;50.518;10.870;2023-01-08T09:34:36;95634.84;;;4.53;100.00
32933;BME280;19444;50.518;10.870;2023-01-08T09:37:33;95642.69;;;4.44;100.00
32933;BME280;19444;50.518;10.870;2023-01-08T09:40:36;95646.75;;;4.55;100.00
32933;BME280;19444;50.518;10.870;2023-01-08T09:43:37;95646.97;;;4.59;100.00
32933;BME280;19444;50.518;10.870;2023-01-08T09:46:35;95638.09;;;4.50;100.00
32933;BME280;19444;50.518;10.870;2023-01-08T09:49:41;95642.16;;;4.61;100.00
32933;BME280;19444;50.518;10.870;2023-01-08T09:52:38;95633.53;;;4.69;100.00
32933;BME280;19444;50.518;10.870;2023-01-08T09:55:39;95622.22;;;4.64;100.00
32933;BME280;19444;50.518;10.870;2023-01-08T09:58:42;95622.94;;;4.83;100.00
32933;BME280;19444;50.518;10.870;2023-01-08T10:01:39;95627.25;;;4.79;100.00
32933;BME280;19444;50.518;10.870;2023-01-08T10:04:37;95619.19;;;4.84;100.00
32933;BME280;19444;50.518;10.870;2023-01-08T10:07:34;95624.31;;;4.80;100.00
32933;BME280;19444;50.518;10.870;2023-01-08T10:10:30;95617.25;;;4.90;100.00
32933;BME280;19444;50.518;10.870;2023-01-08T10:13:27;95612.63;;;4.81;100.00
32933;BME280;19444;50.518;10.870;2023-01-08T10:16:34;95611.16;;;4.89;100.00
32933;BME280;19444;50.518;10.870;2023-01-08T10:19:33;95609.78;;;4.78;100.00
32933;BME280;19444;50.518;10.870;2023-01-08T10:22:31;95612.91;;;4.94;100.00
32933;BME280;19444;50.518;10.870;2023-01-08T10:25:29;95616.66;;;4.93;100.00
32933;BME280;19444;50.518;10.870;2023-01-08T10:28:31;95615.56;;;4.94;100.00
32933;BME280;19444;50.518;10.870;2023-01-08T10:31:30;95616.94;;;4.77;100.00
32933;BME280;19444;50.518;10.870;2023-01-08T10:37:33;95603.56;;;4.82;100.00
32933;BME280;19444;50.518;10.870;2023-01-08T10:40:36;95598.06;;;4.93;100.00
32933;BME280;19444;50.518;10.870;2023-01-08T10:44:21;95607.13;;;4.92;100.00
32933;BME280;19444;50.518;10.870;2023-01-08T10:46:54;95597.81;;;4.94;100.00
32933;BME280;19444;50.518;10.870;2023-01-08T10:49:52;95585.59;;;4.93;100.00
32933;BME280;19444;50.518;10.870;2023-01-08T10:52:56;95582.06;;;4.98;100.00
32933;BME280;19444;50.518;10.870;2023-01-08T10:55:59;95581.47;;;4.87;100.00
32933;BME280;19444;50.518;10.870;2023-01-08T10:58:56;95584.44;;;4.99;100.00
32933;BME280;19444;50.518;10.870;2023-01-08T11:01:54;95569.16;;;4.91;100.00
32933;BME280;19444;50.518;10.870;2023-01-08T11:04:52;95569.28;;;5.00;100.00
32933;BME280;19444;50.518;10.870;2023-01-08T11:07:51;95563.66;;;4.88;100.00
32933;BME280;19444;50.518;10.870;2023-01-08T11:10:55;95567.59;;;4.76;100.00
32933;BME280;19444;50.518;10.870;2023-01-08T11:13:57;95569.38;;;4.81;100.00
32933;BME280;19444;50.518;10.870;2023-01-08T11:16:55;95565.44;;;4.92;100.00
32933;BME280;19444;50.518;10.870;2023-01-08T11:19:53;95565.66;;;4.96;100.00
32933;BME280;19444;50.518;10.870;2023-01-08T11:22:51;95567.31;;;4.92;100.00
32933;BME280;19444;50.518;10.870;2023-01-08T11:26:10;95566.72;;;4.95;100.00
32933;BME280;19444;50.518;10.870;2023-01-08T11:29:20;95563.38;;;4.89;100.00
32933;BME280;19444;50.518;10.870;2023-01-08T11:35:38;95547.63;;;4.93;100.00
32933;BME280;19444;50.518;10.870;2023-01-08T11:38:36;95542.25;;;4.98;100.00
32933;BME280;19444;50.518;10.870;2023-01-08T11:42:08;95543.81;;;4.99;100.00
32933;BME280;19444;50.518;10.870;2023-01-08T12:11:59;95493.16;;;5.09;100.00
32933;BME280;19444;50.518;10.870;2023-01-08T12:15:06;95487.44;;;5.16;100.00
32933;BME280;19444;50.518;10.870;2023-01-08T12:18:18;95485.75;;;5.20;100.00
32933;BME280;19444;50.518;10.870;2023-01-08T12:21:26;95482.94;;;5.16;100.00
32933;BME280;19444;50.518;10.870;2023-01-08T12:31:09;95459.72;;;5.08;100.00
32933;BME280;19444;50.518;10.870;2023-01-08T12:34:15;95452.31;;;5.19;100.00
32933;BME280;19444;50.518;10.870;2023-01-08T12:40:33;95443.00;;;5.21;100.00
32933;BME280;19444;50.518;10.870;2023-01-08T12:43:50;95445.25;;;5.14;100.00
32933;BME280;19444;50.518;10.870;2023-01-08T12:46:49;95447.63;;;5.16;100.00
32933;BME280;19444;50.518;10.870;2023-01-08T12:50:15;95454.00;;;5.14;100.00
32933;BME280;19444;50.518;10.870;2023-01-08T12:56:51;95443.56;;;5.18;100.00
32933;BME280;19444;50.518;10.870;2023-01-08T13:00:30;95445.19;;;5.05;100.00
32933;BME280;19444;50.518;10.870;2023-01-08T13:03:29;95447.31;;;5.17;100.00
32933;BME280;19444;50.518;10.870;2023-01-08T13:06:28;95436.22;;;5.15;100.00
32933;BME280;19444;50.518;10.870;2023-01-08T13:09:25;95434.81;;;5.18;100.00
32933;BME280;19444;50.518;10.870;2023-01-08T13:12:29;95425.59;;;5.15;100.00
32933;BME280;19444;50.518;10.870;2023-01-08T13:15:29;95424.41;;;5.21;100.00
32933;BME280;19444;50.518;10.870;2023-01-08T13:18:27;95416.59;;;5.25;100.00
32933;BME280;19444;50.518;10.870;2023-01-08T13:21:37;95420.06;;;5.25;100.00
32933;BME280;19444;50.518;10.870;2023-01-08T13:24:37;95413.56;;;5.31;100.00
32933;BME280;19444;50.518;10.870;2023-01-08T13:27:36;95410.22;;;5.48;100.00
32933;BME280;19444;50.518;10.870;2023-01-08T13:30:37;95411.63;;;5.46;100.00
32933;BME280;19444;50.518;10.870;2023-01-08T13:33:37;95404.66;;;5.36;100.00
32933;BME280;19444;50.518;10.870;2023-01-08T13:36:35;95424.91;;;5.46;100.00
32933;BME280;19444;50.518;10.870;2023-01-08T13:39:36;95421.16;;;5.47;100.00
32933;BME280;19444;50.518;10.870;2023-01-08T13:42:34;95406.50;;;5.49;100.00
32933;BME280;19444;50.518;10.870;2023-01-08T13:45:31;95417.91;;;5.50;100.00
32933;BME280;19444;50.518;10.870;2023-01-08T13:48:31;95416.28;;;5.40;100.00
32933;BME280;19444;50.518;10.870;2023-01-08T13:51:43;95415.84;;;5.47;100.00
32933;BME280;19444;50.518;10.870;2023-01-08T13:54:41;95412.59;;;5.50;100.00
32933;BME280;19444;50.518;10.870;2023-01-08T13:57:41;95415.44;;;5.53;100.00
32933;BME280;19444;50.518;10.870;2023-01-08T14:03:45;95403.91;;;5.58;100.00
32933;BME280;19444;50.518;10.870;2023-01-08T14:06:42;95408.13;;;5.59;100.00
32933;BME280;19444;50.518;10.870;2023-01-08T14:09:39;95414.81;;;5.56;100.00
32933;BME280;19444;50.518;10.870;2023-01-08T14:12:36;95412.72;;;5.67;100.00
32933;BME280;19444;50.518;10.870;2023-01-08T14:15:33;95412.28;;;5.74;100.00
32933;BME280;19444;50.518;10.870;2023-01-08T14:18:30;95417.28;;;5.75;100.00
32933;BME280;19444;50.518;10.870;2023-01-08T14:21:28;95406.06;;;5.78;100.00
32933;BME280;19444;50.518;10.870;2023-01-08T14:24:24;95405.28;;;5.78;100.00
32933;BME280;19444;50.518;10.870;2023-01-08T14:27:24;95417.78;;;5.77;100.00
32933;BME280;19444;50.518;10.870;2023-01-08T14:30:21;95409.47;;;5.70;100.00
32933;BME280;19444;50.518;10.870;2023-01-08T14:33:22;95417.13;;;5.71;100.00
32933;BME280;19444;50.518;10.870;2023-01-08T14:36:19;95408.53;;;5.75;100.00
32933;BME280;19444;50.518;10.870;2023-01-08T14:42:28;95407.41;;;5.67;100.00
32933;BME280;19444;50.518;10.870;2023-01-08T14:45:50;95407.59;;;5.70;100.00
32933;BME280;19444;50.518;10.870;2023-01-08T14:48:47;95387.09;;;5.71;100.00
32933;BME280;19444;50.518;10.870;2023-01-08T14:51:44;95377.41;;;5.75;100.00
32933;BME280;19444;50.518;10.870;2023-01-08T14:54:41;95380.84;;;5.76;100.00
32933;BME280;19444;50.518;10.870;2023-01-08T14:57:48;95387.16;;;5.80;100.00
32933;BME280;19444;50.518;10.870;2023-01-08T15:00:54;95376.63;;;5.75;100.00
32933;BME280;19444;50.518;10.870;2023-01-08T15:04:04;95379.59;;;5.73;100.00
32933;BME280;19444;50.518;10.870;2023-01-08T15:07:26;95367.44;;;5.81;100.00
32933;BME280;19444;50.518;10.870;2023-01-08T15:10:36;95379.50;;;5.78;100.00
32933;BME280;19444;50.518;10.870;2023-01-08T15:13:35;95381.94;;;5.75;100.00
32933;BME280;19444;50.518;10.870;2023-01-08T15:16:36;95379.75;;;5.68;100.00
32933;BME280;19444;50.518;10.870;2023-01-08T15:19:43;95388.66;;;5.72;100.00
32933;BME280;19444;50.518;10.870;2023-01-08T15:22:44;95391.63;;;5.70;100.00
32933;BME280;19444;50.518;10.870;2023-01-08T15:25:42;95406.31;;;5.68;100.00
32933;BME280;19444;50.518;10.870;2023-01-08T15:29:03;95389.81;;;5.80;100.00
32933;BME280;19444;50.518;10.870;2023-01-08T15:35:16;95383.81;;;5.74;100.00
32933;BME280;19444;50.518;10.870;2023-01-08T15:38:14;95376.03;;;5.78;100.00
32933;BME280;19444;50.518;10.870;2023-01-08T15:41:13;95372.25;;;5.70;100.00
32933;BME280;19444;50.518;10.870;2023-01-08T15:44:32;95368.03;;;5.69;100.00
32933;BME280;19444;50.518;10.870;2023-01-08T15:47:28;95376.00;;;5.69;100.00
32933;BME280;19444;50.518;10.870;2023-01-08T15:50:26;95377.56;;;5.70;100.00
32933;BME280;19444;50.518;10.870;2023-01-08T15:53:23;95383.97;;;5.69;100.00
32933;BME280;19444;50.518;10.870;2023-01-08T15:56:20;95378.34;;;5.70;100.00
32933;BME280;19444;50.518;10.870;2023-01-08T15:59:17;95376.78;;;5.69;100.00
32933;BME280;19444;50.518;10.870;2023-01-08T16:02:14;95370.06;;;5.72;100.00
32933;BME280;19444;50.518;10.870;2023-01-08T16:05:12;95366.16;;;5.69;100.00
32933;BME280;19444;50.518;10.870;2023-01-08T16:08:09;95360.41;;;5.76;100.00
32933;BME280;19444;50.518;10.870;2023-01-08T16:11:07;95366.50;;;5.77;100.00
32933;BME280;19444;50.518;10.870;2023-01-08T16:14:03;95364.75;;;5.72;100.00
32933;BME280;19444;50.518;10.870;2023-01-08T16:17:00;95351.94;;;5.74;100.00
32933;BME280;19444;50.518;10.870;2023-01-08T16:19:57;95358.16;;;5.69;100.00
32933;BME280;19444;50.518;10.870;2023-01-08T16:22:54;95357.50;;;5.86;100.00
32933;BME280;19444;50.518;10.870;2023-01-08T16:25:52;95354.47;;;5.79;100.00
32933;BME280;19444;50.518;10.870;2023-01-08T16:28:48;95347.91;;;5.77;100.00
32933;BME280;19444;50.518;10.870;2023-01-08T16:31:46;95347.22;;;5.71;100.00
32933;BME280;19444;50.518;10.870;2023-01-08T16:34:43;95340.97;;;5.76;100.00
32933;BME280;19444;50.518;10.870;2023-01-08T16:37:40;95327.88;;;5.79;100.00